createdAt,value
2022-12-31T00:01:29.658Z,69.99
2022-12-31T00:03:57.094Z,69.49
2022-12-31T00:06:29.823Z,69.12
2022-12-31T00:08:57.708Z,69.83
2022-12-31T00:11:24.529Z,69.22
2022-12-31T00:13:51.408Z,69.23
2022-12-31T00:16:23.743Z,69.36
2022-12-31T00:18:52.816Z,69.72
2022-12-31T00:21:19.970Z,69.90
2022-12-31T00:23:46.749Z,69.34
2022-12-31T00:26:16.483Z,69.39
2022-12-31T00:28:43.716Z,69.39
2022-12-31T00:31:14.754Z,69.35
2022-12-31T00:33:41.763Z,69.66
2022-12-31T00:36:10.016Z,69.88
2022-12-31T00:38:37.410Z,69.38
2022-12-31T00:41:04.921Z,68.83
2022-12-31T00:43:34.777Z,68.85
2022-12-31T00:46:02.916Z,68.88
2022-12-31T00:48:29.557Z,68.68
2022-12-31T00:50:56.408Z,68.61
2022-12-31T00:53:23.462Z,68.67
2022-12-31T00:55:50.358Z,68.41
2022-12-31T00:58:16.863Z,68.72
2022-12-31T01:00:44.217Z,68.54
2022-12-31T01:03:10.785Z,68.35
2022-12-31T01:05:37.575Z,68.59
2022-12-31T01:08:06.379Z,68.25
2022-12-31T01:10:51.524Z,67.77
2022-12-31T01:13:18.161Z,68.01
2022-12-31T01:15:44.765Z,67.50
2022-12-31T01:18:11.958Z,67.94
2022-12-31T01:20:41.240Z,67.55
2022-12-31T01:23:09.028Z,67.36
2022-12-31T01:25:36.518Z,68.60
2022-12-31T01:28:04.260Z,67.91
2022-12-31T01:30:31.132Z,66.82
2022-12-31T01:32:57.682Z,68.05
2022-12-31T01:35:24.574Z,67.14
2022-12-31T01:37:51.337Z,67.45
2022-12-31T01:40:17.882Z,67.47
2022-12-31T01:42:44.360Z,67.24
2022-12-31T01:45:13.595Z,67.32
2022-12-31T01:47:45.645Z,67.87
2022-12-31T01:50:17.216Z,67.92
2022-12-31T01:52:55.587Z,66.86
2022-12-31T01:55:34.499Z,66.74
2022-12-31T01:58:06.817Z,67.28
2022-12-31T02:00:34.205Z,67.65
2022-12-31T02:03:00.823Z,67.48
2022-12-31T02:05:33.406Z,67.08
2022-12-31T02:07:59.958Z,67.06
2022-12-31T02:10:26.543Z,67.11
2022-12-31T02:12:53.041Z,66.89
2022-12-31T02:15:23.150Z,67.48
2022-12-31T02:18:09.996Z,67.57
2022-12-31T02:21:08.044Z,66.85
2022-12-31T02:23:50.092Z,66.66
2022-12-31T02:26:16.468Z,66.98
2022-12-31T02:29:27.384Z,66.95
2022-12-31T02:32:12.691Z,66.86
2022-12-31T02:34:47.804Z,66.38
2022-12-31T02:37:15.386Z,65.83
2022-12-31T02:39:43.357Z,65.75
2022-12-31T02:42:10.829Z,65.15
2022-12-31T02:44:39.034Z,64.78
2022-12-31T02:47:08.556Z,65.04
2022-12-31T02:50:12.447Z,64.57
2022-12-31T02:52:51.168Z,64.44
2022-12-31T02:55:49.480Z,64.79
2022-12-31T02:59:01.403Z,64.98
2022-12-31T03:01:54.213Z,65.83
2022-12-31T03:04:34.447Z,65.03
2022-12-31T03:07:12.169Z,65.61
2022-12-31T03:09:39.213Z,65.73
2022-12-31T03:12:27.747Z,66.07
2022-12-31T03:14:54.296Z,66.09
2022-12-31T03:17:20.969Z,66.12
2022-12-31T03:20:23.402Z,66.32
2022-12-31T03:22:49.921Z,66.35
2022-12-31T03:25:37.884Z,65.87
2022-12-31T03:28:10.275Z,65.93
2022-12-31T03:30:39.912Z,66.20
2022-12-31T03:33:07.134Z,65.45
2022-12-31T03:35:35.767Z,65.78
2022-12-31T03:38:03.073Z,66.34
2022-12-31T03:40:31.054Z,66.84
2022-12-31T03:42:57.731Z,66.74
2022-12-31T03:45:24.296Z,65.93
2022-12-31T03:47:50.817Z,65.83
2022-12-31T03:50:18.735Z,65.06
2022-12-31T03:52:45.276Z,65.28
2022-12-31T03:55:12.403Z,65.50
2022-12-31T03:57:39.116Z,65.14
2022-12-31T04:00:07.778Z,64.55
2022-12-31T04:02:34.448Z,64.77
2022-12-31T04:05:01.082Z,64.08
2022-12-31T04:07:27.636Z,64.41
2022-12-31T04:09:54.186Z,64.41
2022-12-31T04:12:20.694Z,64.44
2022-12-31T04:14:47.237Z,64.01
2022-12-31T04:17:13.879Z,63.27
2022-12-31T04:19:40.719Z,63.65
2022-12-31T04:22:07.311Z,63.91
2022-12-31T04:24:33.852Z,63.83
2022-12-31T04:27:07.080Z,64.23
2022-12-31T04:29:34.169Z,64.39
2022-12-31T04:32:00.891Z,63.45
2022-12-31T04:34:27.580Z,63.24
2022-12-31T04:36:54.095Z,63.69
2022-12-31T04:39:20.705Z,63.70
2022-12-31T04:41:47.220Z,63.03
2022-12-31T04:44:13.678Z,63.50
2022-12-31T04:46:40.206Z,63.04
2022-12-31T04:49:07.708Z,63.48
2022-12-31T04:51:34.330Z,63.97
2022-12-31T04:54:01.269Z,63.97
2022-12-31T04:56:28.223Z,64.62
2022-12-31T04:58:55.069Z,64.98
2022-12-31T05:01:21.911Z,64.77
2022-12-31T05:03:48.797Z,65.10
2022-12-31T05:06:18.274Z,65.08
2022-12-31T05:08:44.936Z,64.98
2022-12-31T05:11:11.584Z,64.46
2022-12-31T05:13:38.737Z,64.51
2022-12-31T05:16:05.869Z,64.76
2022-12-31T05:18:32.976Z,65.61
2022-12-31T05:20:59.632Z,66.00
2022-12-31T05:23:26.345Z,66.21
2022-12-31T05:25:53.380Z,66.32
2022-12-31T05:28:20.529Z,66.17
2022-12-31T05:30:50.881Z,65.48
2022-12-31T05:33:18.429Z,64.91
2022-12-31T05:35:45.207Z,65.84
2022-12-31T05:38:11.736Z,66.31
2022-12-31T05:40:38.260Z,65.85
2022-12-31T05:43:04.765Z,65.92
2022-12-31T05:45:31.584Z,65.81
2022-12-31T05:47:58.408Z,66.32
2022-12-31T05:50:25.084Z,66.50
2022-12-31T05:52:56.006Z,66.34
2022-12-31T05:55:22.637Z,65.34
2022-12-31T05:57:49.179Z,65.98
2022-12-31T06:00:15.964Z,65.79
2022-12-31T06:02:42.493Z,65.81
2022-12-31T06:05:09.241Z,65.40
2022-12-31T06:07:35.763Z,66.10
2022-12-31T06:10:04.547Z,65.86
2022-12-31T06:12:31.097Z,65.77
2022-12-31T06:14:57.601Z,65.89
2022-12-31T06:17:24.337Z,65.29
2022-12-31T06:19:50.876Z,65.56
2022-12-31T06:22:17.544Z,65.39
2022-12-31T06:24:44.131Z,65.02
2022-12-31T06:27:10.747Z,65.69
2022-12-31T06:29:37.370Z,65.00
2022-12-31T06:32:04.094Z,64.72
2022-12-31T06:34:30.631Z,65.03
2022-12-31T06:36:57.480Z,65.26
2022-12-31T06:39:24.001Z,64.38
2022-12-31T06:41:50.612Z,64.80
2022-12-31T06:44:17.100Z,64.32
2022-12-31T06:46:43.633Z,64.21
2022-12-31T06:49:10.384Z,64.28
2022-12-31T06:51:36.892Z,63.67
2022-12-31T06:54:03.423Z,63.75
2022-12-31T06:56:34.459Z,63.91
2022-12-31T06:59:01.971Z,63.41
2022-12-31T07:01:51.440Z,63.47
2022-12-31T07:04:49.774Z,63.57
2022-12-31T07:07:35.257Z,64.02
2022-12-31T07:10:59.857Z,63.72
2022-12-31T07:13:49.332Z,63.49
2022-12-31T07:16:40.618Z,63.50
2022-12-31T07:19:32.301Z,63.46
2022-12-31T07:22:00.203Z,63.64
2022-12-31T07:24:27.123Z,63.90
2022-12-31T07:27:11.611Z,63.29
2022-12-31T07:30:05.384Z,63.00
2022-12-31T07:33:12.025Z,63.29
2022-12-31T07:36:01.393Z,63.44
2022-12-31T07:38:55.902Z,63.10
2022-12-31T07:41:34.798Z,63.74
2022-12-31T07:44:17.109Z,62.93
2022-12-31T07:46:56.701Z,63.16
2022-12-31T07:49:24.908Z,62.88
2022-12-31T07:51:51.981Z,63.40
2022-12-31T07:54:19.141Z,63.32
2022-12-31T07:56:46.545Z,63.55
2022-12-31T07:59:46.158Z,62.46
2022-12-31T08:02:21.752Z,62.68
2022-12-31T08:04:59.705Z,62.85
2022-12-31T08:07:48.475Z,62.43
2022-12-31T08:10:27.225Z,62.12
2022-12-31T08:13:01.719Z,61.85
2022-12-31T08:15:30.761Z,62.22
2022-12-31T08:17:57.787Z,61.05
2022-12-31T08:20:25.622Z,60.93
2022-12-31T08:23:11.182Z,61.18
2022-12-31T08:25:45.279Z,60.73
2022-12-31T08:28:19.828Z,60.44
2022-12-31T08:31:10.919Z,59.69
2022-12-31T08:33:44.962Z,60.26
2022-12-31T08:36:23.047Z,59.31
2022-12-31T08:38:58.204Z,59.29
2022-12-31T08:41:45.626Z,58.89
2022-12-31T08:44:33.594Z,59.39
2022-12-31T08:47:03.298Z,59.65
2022-12-31T08:49:33.066Z,59.86
2022-12-31T08:52:01.075Z,59.88
2022-12-31T08:54:28.319Z,59.44
2022-12-31T08:57:04.667Z,59.06
2022-12-31T08:59:44.172Z,58.97
2022-12-31T09:02:48.586Z,58.93
2022-12-31T09:05:25.866Z,58.46
2022-12-31T09:08:46.511Z,58.23
2022-12-31T09:11:22.852Z,58.09
2022-12-31T09:14:03.979Z,58.11
2022-12-31T09:16:41.964Z,58.04
2022-12-31T09:19:10.055Z,58.46
2022-12-31T09:21:38.237Z,58.05
2022-12-31T09:24:09.361Z,57.65
2022-12-31T09:27:06.612Z,58.78
2022-12-31T09:29:45.012Z,57.37
2022-12-31T09:32:45.841Z,56.81
2022-12-31T09:35:36.370Z,56.47
2022-12-31T09:38:23.098Z,55.96
2022-12-31T09:41:30.220Z,55.88
2022-12-31T09:44:28.825Z,56.11
2022-12-31T09:47:10.154Z,55.88
2022-12-31T09:49:51.312Z,54.83
2022-12-31T09:52:36.112Z,54.74
2022-12-31T09:55:21.571Z,54.50
2022-12-31T09:58:00.278Z,54.37
2022-12-31T10:00:40.253Z,54.16
2022-12-31T10:03:18.924Z,53.14
2022-12-31T10:06:27.200Z,53.45
2022-12-31T10:09:13.391Z,53.37
2022-12-31T10:12:26.652Z,53.48
2022-12-31T10:15:12.696Z,53.06
2022-12-31T10:18:06.999Z,52.00
2022-12-31T10:21:01.358Z,51.85
2022-12-31T10:24:05.138Z,51.98
2022-12-31T10:26:52.904Z,52.56
2022-12-31T10:29:31.880Z,52.31
2022-12-31T10:32:20.068Z,51.93
2022-12-31T10:35:12.105Z,51.64
2022-12-31T10:38:17.658Z,51.66
2022-12-31T10:41:10.235Z,50.82
2022-12-31T10:43:45.933Z,50.20
2022-12-31T10:46:30.687Z,49.17
2022-12-31T10:49:41.104Z,48.43
2022-12-31T10:52:25.005Z,48.77
2022-12-31T10:55:18.847Z,48.25
2022-12-31T10:58:11.209Z,49.67
2022-12-31T11:00:52.173Z,49.78
2022-12-31T11:03:39.909Z,49.87
2022-12-31T11:06:26.133Z,48.72
2022-12-31T11:09:14.781Z,48.91
2022-12-31T11:12:05.121Z,49.25
2022-12-31T11:14:59.564Z,48.88
2022-12-31T11:17:53.629Z,49.47
2022-12-31T11:20:25.669Z,49.44
2022-12-31T11:23:15.217Z,49.49
2022-12-31T11:26:16.008Z,49.49
2022-12-31T11:28:45.587Z,49.16
2022-12-31T11:31:31.045Z,49.21
2022-12-31T11:34:18.711Z,48.71
2022-12-31T11:36:54.538Z,49.09
2022-12-31T11:39:39.430Z,48.58
2022-12-31T11:42:18.206Z,48.27
2022-12-31T11:45:13.290Z,48.87
2022-12-31T11:51:11.909Z,48.11
2022-12-31T11:53:57.492Z,47.73
2022-12-31T11:56:26.114Z,47.90
2022-12-31T11:58:54.213Z,47.46
2022-12-31T12:01:47.995Z,47.50
2022-12-31T12:04:14.738Z,47.78
2022-12-31T12:06:42.805Z,47.49
2022-12-31T12:09:27.091Z,47.67
2022-12-31T12:12:04.923Z,47.47
2022-12-31T12:14:38.010Z,47.09
2022-12-31T12:17:09.542Z,47.68
2022-12-31T12:19:42.827Z,47.85
2022-12-31T12:22:19.730Z,46.99
2022-12-31T12:25:03.631Z,47.05
2022-12-31T12:27:32.389Z,47.86
2022-12-31T12:30:24.651Z,47.19
2022-12-31T12:33:01.863Z,46.92
2022-12-31T12:35:31.786Z,47.26
2022-12-31T12:38:06.787Z,47.41
2022-12-31T12:40:35.133Z,47.64
2022-12-31T12:43:02.861Z,47.58
2022-12-31T12:45:38.316Z,47.04
2022-12-31T12:48:18.412Z,47.66
2022-12-31T12:50:46.275Z,47.37
2022-12-31T12:53:37.588Z,48.68
2022-12-31T12:56:15.307Z,48.28
2022-12-31T12:58:57.148Z,48.14
2022-12-31T13:01:52.351Z,48.48
2022-12-31T13:04:44.816Z,47.81
2022-12-31T13:07:38.018Z,48.35
2022-12-31T13:10:07.608Z,47.55
2022-12-31T13:13:13.899Z,47.26
2022-12-31T13:15:42.767Z,47.67
2022-12-31T13:18:31.403Z,47.94
2022-12-31T13:21:04.344Z,47.67
2022-12-31T13:23:42.424Z,46.93
2022-12-31T13:26:27.737Z,47.28
2022-12-31T13:28:55.369Z,46.15
2022-12-31T13:31:26.674Z,46.81
2022-12-31T13:33:58.746Z,46.47
2022-12-31T13:36:27.785Z,46.42
2022-12-31T13:38:56.226Z,46.15
2022-12-31T13:41:35.083Z,46.69
2022-12-31T13:44:36.621Z,46.12
2022-12-31T13:47:10.695Z,45.71
2022-12-31T13:49:44.661Z,46.67
2022-12-31T13:52:31.081Z,47.16
2022-12-31T13:55:21.569Z,47.55
2022-12-31T13:57:52.670Z,47.49
2022-12-31T14:00:27.269Z,47.90
2022-12-31T14:03:08.955Z,49.32
2022-12-31T14:05:40.542Z,48.40
2022-12-31T14:08:07.205Z,49.26
2022-12-31T14:10:39.776Z,49.11
2022-12-31T14:13:21.656Z,50.48
2022-12-31T14:16:08.404Z,50.24
2022-12-31T14:18:52.770Z,50.64
2022-12-31T14:21:25.635Z,50.92
2022-12-31T14:24:10.006Z,51.52
2022-12-31T14:26:41.941Z,51.63
2022-12-31T14:29:29.181Z,50.86
2022-12-31T14:32:03.746Z,50.43
2022-12-31T14:34:41.198Z,51.04
2022-12-31T14:37:12.999Z,51.39
2022-12-31T14:39:55.170Z,50.89
2022-12-31T14:42:37.996Z,51.28
2022-12-31T14:45:29.125Z,51.58
2022-12-31T14:48:22.253Z,52.29
2022-12-31T14:50:48.896Z,51.55
2022-12-31T14:53:22.401Z,51.18
2022-12-31T14:55:57.989Z,50.88
2022-12-31T14:58:37.423Z,50.99
2022-12-31T15:01:19.839Z,51.02
2022-12-31T15:03:46.638Z,52.24
2022-12-31T15:06:34.135Z,52.41
2022-12-31T15:09:20.729Z,53.89
2022-12-31T15:12:38.153Z,54.06
2022-12-31T15:15:16.570Z,54.97
2022-12-31T15:18:07.516Z,55.97
2022-12-31T15:21:00.939Z,55.57
2022-12-31T15:23:42.367Z,55.48
2022-12-31T15:26:23.950Z,55.54
2022-12-31T15:29:23.781Z,55.48
2022-12-31T15:31:50.803Z,56.16
2022-12-31T15:34:36.771Z,56.85
2022-12-31T15:37:06.503Z,56.30
2022-12-31T15:39:32.937Z,56.42
2022-12-31T15:44:55.438Z,55.86
2022-12-31T15:47:30.849Z,55.72
2022-12-31T15:50:00.504Z,55.48
2022-12-31T15:52:42.882Z,55.24
2022-12-31T15:55:20.281Z,56.56
2022-12-31T15:57:47.198Z,56.36
2022-12-31T16:00:21.925Z,56.93
2022-12-31T16:02:52.228Z,57.43
2022-12-31T16:05:21.579Z,57.41
2022-12-31T16:07:48.693Z,57.21
2022-12-31T16:10:20.582Z,57.63
2022-12-31T16:12:47.322Z,57.45
2022-12-31T16:15:20.903Z,58.57
2022-12-31T16:17:58.615Z,59.03
2022-12-31T16:20:30.113Z,59.62
2022-12-31T16:22:57.541Z,59.93
2022-12-31T16:25:33.168Z,60.56
2022-12-31T16:28:01.861Z,59.85
2022-12-31T16:30:30.791Z,60.19
2022-12-31T16:33:04.183Z,60.21
2022-12-31T16:35:39.082Z,60.13
2022-12-31T16:38:15.621Z,60.29
2022-12-31T16:40:44.434Z,59.93
2022-12-31T16:43:24.378Z,60.12
2022-12-31T16:45:51.859Z,60.17
2022-12-31T16:48:19.780Z,60.37
2022-12-31T16:50:52.523Z,60.88
2022-12-31T16:53:21.400Z,60.36
2022-12-31T16:55:56.471Z,60.16
2022-12-31T16:58:29.976Z,60.87
2022-12-31T17:01:15.750Z,60.62
2022-12-31T17:03:45.629Z,60.07
2022-12-31T17:06:15.410Z,60.03
2022-12-31T17:09:14.558Z,59.15
2022-12-31T17:11:53.332Z,57.78
2022-12-31T17:14:23.212Z,57.73
2022-12-31T17:17:03.319Z,59.09
2022-12-31T17:19:36.321Z,58.40
2022-12-31T17:22:04.508Z,57.33
2022-12-31T17:24:31.570Z,57.27
2022-12-31T17:27:04.812Z,57.65
2022-12-31T17:29:31.542Z,57.82
2022-12-31T17:32:02.187Z,57.82
2022-12-31T17:34:34.318Z,59.09
2022-12-31T17:37:06.854Z,58.02
2022-12-31T17:39:54.489Z,58.69
2022-12-31T17:42:28.393Z,59.17
2022-12-31T17:45:00.220Z,59.32
2022-12-31T17:47:33.920Z,59.14
2022-12-31T17:50:06.087Z,60.10
2022-12-31T17:52:32.871Z,59.13
2022-12-31T17:54:59.563Z,59.76
2022-12-31T17:57:27.786Z,59.65
2022-12-31T17:59:54.622Z,58.06
2022-12-31T18:02:21.423Z,58.32
2022-12-31T18:04:48.089Z,58.95
2022-12-31T18:07:14.721Z,59.52
2022-12-31T18:09:41.327Z,59.42
2022-12-31T18:12:08.349Z,58.87
2022-12-31T18:14:35.063Z,59.34
2022-12-31T18:17:01.844Z,59.33
2022-12-31T18:22:16.216Z,59.52
2022-12-31T18:24:43.680Z,59.92
2022-12-31T18:27:16.397Z,59.34
2022-12-31T18:29:43.551Z,58.29
2022-12-31T18:32:30.492Z,58.04
2022-12-31T18:34:57.032Z,57.92
2022-12-31T18:37:25.263Z,58.42
2022-12-31T18:39:52.117Z,57.48
2022-12-31T18:42:19.292Z,57.73
2022-12-31T18:44:46.178Z,58.10
2022-12-31T18:47:18.534Z,58.12
2022-12-31T18:49:45.658Z,58.85
2022-12-31T18:52:21.379Z,59.07
2022-12-31T18:54:48.775Z,59.66
2022-12-31T18:57:15.997Z,59.18
2022-12-31T18:59:42.974Z,60.88
2022-12-31T19:02:18.549Z,60.28
2022-12-31T19:04:45.457Z,60.60
2022-12-31T19:07:12.077Z,59.99
2022-12-31T19:09:47.184Z,59.96
2022-12-31T19:12:15.261Z,59.31
2022-12-31T19:14:41.825Z,60.09
2022-12-31T19:19:34.740Z,59.23
2022-12-31T19:22:01.597Z,59.67
2022-12-31T19:24:28.461Z,59.13
2022-12-31T19:26:55.262Z,59.95
2022-12-31T19:29:27.013Z,59.97
2022-12-31T19:31:53.730Z,59.69
2022-12-31T19:34:20.785Z,59.46
2022-12-31T19:36:47.436Z,59.78
2022-12-31T19:39:18.845Z,59.01
2022-12-31T19:41:46.049Z,59.35
2022-12-31T19:44:17.486Z,59.12
2022-12-31T19:46:44.834Z,58.95
2022-12-31T19:49:12.725Z,59.27
2022-12-31T19:51:39.399Z,59.96
2022-12-31T19:54:06.582Z,59.76
2022-12-31T19:56:33.146Z,59.14
2022-12-31T19:59:07.298Z,59.81
2022-12-31T20:01:34.197Z,59.76
2022-12-31T20:04:00.941Z,60.40
2022-12-31T20:06:27.577Z,60.65
2022-12-31T20:08:54.176Z,60.82
2022-12-31T20:11:22.447Z,60.08
2022-12-31T20:13:50.224Z,60.02
2022-12-31T20:16:18.376Z,59.43
2022-12-31T20:18:47.093Z,59.74
2022-12-31T20:21:17.865Z,60.42
2022-12-31T20:23:44.682Z,59.40
2022-12-31T20:26:11.486Z,60.19
2022-12-31T20:28:38.521Z,60.40
2022-12-31T20:31:07.112Z,60.35
2022-12-31T20:33:34.682Z,59.66
2022-12-31T20:36:03.144Z,60.03
2022-12-31T20:38:29.694Z,59.56
2022-12-31T20:41:02.701Z,60.16
2022-12-31T20:43:33.296Z,59.91
2022-12-31T20:46:12.438Z,59.04
2022-12-31T20:48:41.521Z,60.65
2022-12-31T20:51:08.246Z,59.73
2022-12-31T20:53:34.795Z,59.14
2022-12-31T20:56:09.493Z,59.32
2022-12-31T20:58:36.762Z,59.61
2022-12-31T21:01:10.016Z,60.19
2022-12-31T21:06:25.634Z,59.91
2022-12-31T21:08:52.268Z,59.29
2022-12-31T21:11:37.548Z,60.07
2022-12-31T21:14:04.305Z,60.25
2022-12-31T21:16:31.010Z,60.46
2022-12-31T21:18:58.020Z,60.91
2022-12-31T21:21:24.626Z,60.48
2022-12-31T21:23:51.536Z,59.90
2022-12-31T21:26:18.358Z,59.35
2022-12-31T21:28:45.115Z,59.37
2022-12-31T21:31:13.349Z,60.40
2022-12-31T21:33:40.470Z,60.18
2022-12-31T21:36:07.758Z,59.97
2022-12-31T21:38:36.340Z,59.60
2022-12-31T21:41:04.500Z,60.62
2022-12-31T21:43:31.142Z,60.31
2022-12-31T21:46:07.004Z,61.56
2022-12-31T21:48:33.937Z,62.23
2022-12-31T21:51:13.156Z,60.81
2022-12-31T21:53:40.333Z,61.91
2022-12-31T21:56:08.476Z,61.71
2022-12-31T21:59:13.491Z,61.91
2022-12-31T22:01:58.873Z,61.11
2022-12-31T22:05:00.535Z,60.79
2022-12-31T22:07:12.313Z,60.84
2022-12-31T22:09:38.850Z,60.89
2022-12-31T22:12:05.804Z,60.51
2022-12-31T22:14:32.562Z,60.36
2022-12-31T22:16:59.093Z,60.36
2022-12-31T22:19:26.023Z,59.16
2022-12-31T22:21:52.578Z,59.97
2022-12-31T22:24:19.137Z,60.66
2022-12-31T22:26:46.946Z,60.87
2022-12-31T22:29:14.029Z,62.18
2022-12-31T22:31:40.640Z,62.42
2022-12-31T22:34:07.339Z,62.71
2022-12-31T22:36:34.756Z,63.14
2022-12-31T22:39:01.390Z,62.72
2022-12-31T22:41:28.694Z,61.96
2022-12-31T22:44:03.184Z,60.91
2022-12-31T22:46:31.309Z,60.04
2022-12-31T22:48:59.517Z,59.57
2022-12-31T22:51:56.669Z,60.72
2022-12-31T22:54:14.513Z,62.15
2022-12-31T22:56:41.277Z,61.03
2022-12-31T22:59:08.003Z,61.20
2022-12-31T23:01:34.680Z,61.66
2022-12-31T23:04:01.387Z,61.63
2022-12-31T23:06:29.013Z,60.63
2022-12-31T23:09:14.231Z,59.80
2022-12-31T23:11:41.190Z,61.33
2022-12-31T23:14:28.884Z,60.78
2022-12-31T23:17:30.039Z,60.89
2022-12-31T23:20:17.061Z,59.92
2022-12-31T23:23:01.928Z,61.67
2022-12-31T23:25:31.910Z,60.08
2022-12-31T23:27:58.630Z,59.61
2022-12-31T23:30:25.292Z,60.71
2022-12-31T23:32:51.878Z,60.56
2022-12-31T23:35:18.371Z,60.00
2022-12-31T23:37:45.040Z,61.34
2022-12-31T23:40:17.230Z,60.28
2022-12-31T23:42:47.388Z,60.29
2022-12-31T23:45:13.925Z,60.83
2022-12-31T23:47:40.538Z,61.02
2022-12-31T23:50:07.826Z,62.04
2022-12-31T23:52:34.427Z,61.97
2022-12-31T23:55:01.041Z,62.27
2022-12-31T23:57:27.581Z,62.81
2022-12-31T23:59:54.119Z,62.36
